Terminal Aerodrome Forecast
Issued by NWS Wilmington, OH

Current Version | Previous Version | Graphics & Text | Print | Product List | Glossary On
Versions: 1 2 3 4 5 6 7 8 9 10 11 12 13 14 15 16 17 18 19 20 21 22 23 24 25 26 27 28 29
263
FTUS41 KILN 240302 AAF
TAFDAY
TAF AMD
KDAY 240302Z 2403/2424 30008KT P6SM VCSH FEW035 BKN250
     FM240400 33008KT P6SM SCT027 BKN250
     FM241200 29010KT P6SM SCT150
     FM241600 28013G20KT P6SM SCT090=

USA.gov is the U.S. government's official web portal to all federal, state and local government web resources and services.